createdAt,value
2023-01-19T00:01:30.455Z,3.47
2023-01-19T00:04:33.376Z,3.72
2023-01-19T00:07:36.025Z,4.43
2023-01-19T00:10:38.160Z,3.78
2023-01-19T00:13:40.869Z,4.05
2023-01-19T00:16:43.454Z,3.92
2023-01-19T00:19:46.103Z,3.92
2023-01-19T00:22:48.264Z,3.72
2023-01-19T00:25:50.918Z,3.65
2023-01-19T00:28:53.981Z,4.63
2023-01-19T00:31:57.102Z,3.17
2023-01-19T00:34:59.718Z,3.90
2023-01-19T00:38:02.601Z,4.55
2023-01-19T00:41:05.499Z,4.07
2023-01-19T00:44:08.474Z,4.25
2023-01-19T00:47:11.290Z,4.28
2023-01-19T00:50:13.528Z,3.95
2023-01-19T00:53:15.914Z,4.03
2023-01-19T00:56:18.194Z,3.88
2023-01-19T00:59:20.785Z,3.70
2023-01-19T01:02:23.436Z,4.32
2023-01-19T01:05:26.728Z,4.13
2023-01-19T01:08:29.167Z,4.10
2023-01-19T01:11:31.925Z,4.38
2023-01-19T01:14:34.322Z,5.40
2023-01-19T01:17:36.734Z,4.25
2023-01-19T01:20:39.271Z,4.70
2023-01-19T01:23:41.832Z,3.95
2023-01-19T01:26:45.041Z,3.22
2023-01-19T01:29:48.062Z,3.22
2023-01-19T01:32:51.243Z,4.30
2023-01-19T01:35:54.435Z,3.92
2023-01-19T01:38:57.188Z,3.70
2023-01-19T01:42:00.345Z,2.97
2023-01-19T01:45:03.382Z,3.15
2023-01-19T01:48:05.580Z,3.40
2023-01-19T01:51:08.503Z,3.10
2023-01-19T01:54:11.739Z,3.28
2023-01-19T01:57:14.965Z,3.28
2023-01-19T02:00:17.897Z,3.22
2023-01-19T02:03:21.192Z,2.67
2023-01-19T02:06:24.100Z,3.33
2023-01-19T02:09:26.719Z,3.22
2023-01-19T02:12:29.638Z,3.20
2023-01-19T02:15:32.548Z,2.97
2023-01-19T02:18:35.061Z,3.58
2023-01-19T02:21:37.458Z,4.55
2023-01-19T02:24:40.441Z,3.50
2023-01-19T02:27:43.669Z,2.72
2023-01-19T02:30:46.468Z,4.15
2023-01-19T02:33:49.844Z,2.83
2023-01-19T02:36:52.955Z,2.72
2023-01-19T02:39:56.204Z,2.60
2023-01-19T02:42:59.750Z,2.72
2023-01-19T02:46:02.968Z,3.75
2023-01-19T02:49:05.151Z,2.75
2023-01-19T02:52:08.015Z,2.40
2023-01-19T02:55:10.391Z,2.50
2023-01-19T02:58:12.579Z,2.47
2023-01-19T03:01:15.498Z,2.45
2023-01-19T03:04:18.805Z,2.30
2023-01-19T03:07:21.455Z,2.88
2023-01-19T03:10:24.416Z,3.15
2023-01-19T03:13:26.938Z,2.40
2023-01-19T03:16:29.748Z,2.28
2023-01-19T03:19:31.969Z,2.67
2023-01-19T03:22:34.326Z,1.95
2023-01-19T03:25:37.243Z,2.45
2023-01-19T03:28:39.772Z,3.20
2023-01-19T03:31:42.781Z,2.35
2023-01-19T03:34:46.124Z,2.20
2023-01-19T03:37:49.395Z,2.50
2023-01-19T03:40:52.444Z,1.95
2023-01-19T03:43:55.667Z,1.92
2023-01-19T03:46:58.975Z,1.95
2023-01-19T03:50:02.292Z,2.22
2023-01-19T03:53:05.687Z,1.67
2023-01-19T03:56:09.572Z,1.98
2023-01-19T03:59:12.462Z,1.80
2023-01-19T04:02:14.640Z,2.05
2023-01-19T04:05:17.647Z,2.42
2023-01-19T04:08:20.504Z,1.27
2023-01-19T04:11:23.097Z,1.92
2023-01-19T04:14:25.859Z,2.00
2023-01-19T04:17:28.770Z,2.05
2023-01-19T04:20:31.468Z,2.25
2023-01-19T04:23:34.350Z,1.80
2023-01-19T04:26:36.495Z,1.38
2023-01-19T04:29:39.346Z,2.20
2023-01-19T04:32:41.551Z,2.58
2023-01-19T04:35:44.202Z,1.38
2023-01-19T04:38:46.683Z,1.70
2023-01-19T04:41:49.309Z,1.85
2023-01-19T04:44:52.280Z,1.73
2023-01-19T04:47:55.163Z,1.25
2023-01-19T04:50:58.021Z,1.73
2023-01-19T04:54:00.392Z,1.63
2023-01-19T04:57:03.057Z,1.05
2023-01-19T05:00:05.714Z,1.67
2023-01-19T05:03:08.429Z,1.13
2023-01-19T05:06:11.259Z,0.73
2023-01-19T05:09:13.918Z,1.45
2023-01-19T05:12:16.529Z,1.17
2023-01-19T05:15:19.121Z,1.23
2023-01-19T05:18:21.701Z,1.23
2023-01-19T05:21:24.403Z,1.35
2023-01-19T05:24:27.120Z,1.20
2023-01-19T05:27:29.695Z,1.55
2023-01-19T05:30:32.523Z,0.93
2023-01-19T05:33:35.492Z,1.20
2023-01-19T05:36:39.599Z,1.42
2023-01-19T05:39:42.472Z,0.80
2023-01-19T05:42:45.466Z,1.35
2023-01-19T05:45:48.643Z,1.15
2023-01-19T05:48:51.151Z,1.02
2023-01-19T05:51:53.447Z,1.42
2023-01-19T05:54:56.483Z,1.02
2023-01-19T05:57:58.903Z,1.20
2023-01-19T06:01:01.925Z,0.88
2023-01-19T06:04:04.443Z,1.88
2023-01-19T06:07:07.382Z,1.00
2023-01-19T06:10:09.756Z,0.93
2023-01-19T06:13:12.494Z,1.90
2023-01-19T06:16:15.123Z,1.20
2023-01-19T06:19:17.722Z,0.77
2023-01-19T06:22:20.632Z,1.17
2023-01-19T06:25:23.421Z,1.15
2023-01-19T06:28:26.345Z,1.33
2023-01-19T06:31:29.107Z,1.48
2023-01-19T06:34:32.487Z,1.95
2023-01-19T06:37:35.449Z,1.75
2023-01-19T06:40:38.081Z,1.02
2023-01-19T06:43:40.239Z,1.13
2023-01-19T06:46:42.527Z,1.25
2023-01-19T06:49:45.171Z,1.70
2023-01-19T06:52:48.118Z,1.95
2023-01-19T06:55:50.316Z,1.20
2023-01-19T06:58:53.621Z,1.50
2023-01-19T07:01:57.064Z,1.75
2023-01-19T07:04:59.656Z,1.92
2023-01-19T07:08:02.273Z,1.27
2023-01-19T07:11:24.564Z,1.05
2023-01-19T07:14:27.559Z,2.00
2023-01-19T07:17:29.741Z,1.75
2023-01-19T07:20:32.581Z,1.27
2023-01-19T07:23:35.402Z,2.42
2023-01-19T07:26:37.831Z,2.35
2023-01-19T07:29:40.809Z,1.95
2023-01-19T07:32:44.515Z,2.97
2023-01-19T07:35:47.982Z,1.38
2023-01-19T07:38:51.011Z,1.52
2023-01-19T07:41:53.850Z,2.75
2023-01-19T07:44:58.562Z,2.30
2023-01-19T07:48:01.077Z,3.85
2023-01-19T07:51:04.221Z,1.70
2023-01-19T07:54:07.160Z,1.65
2023-01-19T07:57:10.183Z,2.30
2023-01-19T08:00:12.965Z,2.10
2023-01-19T08:03:15.741Z,2.33
2023-01-19T08:06:19.036Z,2.25
2023-01-19T08:09:22.202Z,3.80
2023-01-19T08:12:25.138Z,2.20
2023-01-19T08:15:28.469Z,1.52
2023-01-19T08:18:31.297Z,1.45
2023-01-19T08:21:33.831Z,1.27
2023-01-19T08:24:36.299Z,1.85
2023-01-19T08:27:39.248Z,2.17
2023-01-19T08:30:41.840Z,1.70
2023-01-19T08:33:44.556Z,1.90
2023-01-19T08:36:46.881Z,2.53
2023-01-19T08:39:49.544Z,1.95
2023-01-19T08:42:52.225Z,1.67
2023-01-19T08:45:55.008Z,1.25
2023-01-19T08:48:57.954Z,3.20
2023-01-19T08:52:00.805Z,2.88
2023-01-19T08:55:04.235Z,1.98
2023-01-19T08:58:07.317Z,2.92
2023-01-19T09:01:09.881Z,2.60
2023-01-19T09:04:12.653Z,2.83
2023-01-19T09:07:15.076Z,2.28
2023-01-19T09:10:17.912Z,2.83
2023-01-19T09:13:20.544Z,2.88
2023-01-19T09:16:23.526Z,2.45
2023-01-19T09:19:26.025Z,3.70
2023-01-19T09:22:29.091Z,2.60
2023-01-19T09:25:31.538Z,2.80
2023-01-19T09:28:34.586Z,2.47
2023-01-19T09:31:37.277Z,1.63
2023-01-19T09:34:39.902Z,2.30
2023-01-19T09:37:42.816Z,2.13
2023-01-19T09:40:45.217Z,2.83
2023-01-19T09:43:48.018Z,2.72
2023-01-19T09:46:50.975Z,2.17
2023-01-19T09:49:53.625Z,1.40
2023-01-19T09:52:56.159Z,1.52
2023-01-19T09:55:58.899Z,1.80
2023-01-19T09:59:01.290Z,2.90
2023-01-19T10:02:04.333Z,2.47
2023-01-19T10:05:07.434Z,3.25
2023-01-19T10:08:09.796Z,1.95
2023-01-19T10:11:11.956Z,2.47
2023-01-19T10:14:14.820Z,3.33
2023-01-19T10:17:17.745Z,3.08
2023-01-19T10:20:20.367Z,1.98
2023-01-19T10:23:23.421Z,2.00
2023-01-19T10:26:25.860Z,2.30
2023-01-19T10:29:28.627Z,1.98
2023-01-19T10:32:31.599Z,2.90
2023-01-19T10:35:34.334Z,2.85
2023-01-19T10:38:36.997Z,2.65
2023-01-19T10:41:39.503Z,2.53
2023-01-19T10:44:42.468Z,2.47
2023-01-19T10:47:44.787Z,2.08
2023-01-19T10:50:47.317Z,1.75
2023-01-19T10:53:49.672Z,1.73
2023-01-19T10:56:51.985Z,2.60
2023-01-19T10:59:54.648Z,2.10
2023-01-19T11:02:57.333Z,1.70
2023-01-19T11:06:00.709Z,2.60
2023-01-19T11:09:03.580Z,2.47
2023-01-19T11:12:06.496Z,3.20
2023-01-19T11:15:09.696Z,2.28
2023-01-19T11:18:12.736Z,1.85
2023-01-19T11:21:15.725Z,1.20
2023-01-19T11:24:18.340Z,2.75
2023-01-19T11:27:20.921Z,2.65
2023-01-19T11:30:23.419Z,2.95
2023-01-19T11:33:26.407Z,1.80
2023-01-19T11:36:28.606Z,2.97
2023-01-19T11:39:31.423Z,3.03
2023-01-19T11:42:33.973Z,2.15
2023-01-19T11:45:36.031Z,1.77
2023-01-19T11:48:38.113Z,3.22
2023-01-19T11:51:40.413Z,2.28
2023-01-19T11:54:42.642Z,2.97
2023-01-19T11:57:45.233Z,2.35
2023-01-19T12:00:48.178Z,2.63
2023-01-19T12:03:52.770Z,2.10
2023-01-19T12:06:56.800Z,2.50
2023-01-19T12:09:59.505Z,1.98
2023-01-19T12:13:01.821Z,1.73
2023-01-19T12:16:04.458Z,2.25
2023-01-19T12:19:06.377Z,1.70
2023-01-19T12:22:09.255Z,2.28
2023-01-19T12:25:12.270Z,1.73
2023-01-19T12:28:14.533Z,1.80
2023-01-19T12:31:17.242Z,3.20
2023-01-19T12:34:19.777Z,1.92
2023-01-19T12:37:22.590Z,2.08
2023-01-19T12:40:25.901Z,2.95
2023-01-19T12:43:28.626Z,2.65
2023-01-19T12:46:30.943Z,2.35
2023-01-19T12:49:33.409Z,2.05
2023-01-19T12:52:36.324Z,2.60
2023-01-19T12:55:39.613Z,3.47
2023-01-19T12:58:43.068Z,3.45
2023-01-19T13:01:45.781Z,1.98
2023-01-19T13:04:48.419Z,2.50
2023-01-19T13:07:50.536Z,2.42
2023-01-19T13:10:52.921Z,2.30
2023-01-19T13:13:56.216Z,2.45
2023-01-19T13:16:59.130Z,1.70
2023-01-19T13:20:02.140Z,2.53
2023-01-19T13:23:05.004Z,2.25
2023-01-19T13:26:07.208Z,2.40
2023-01-19T13:29:09.959Z,2.25
2023-01-19T13:32:12.637Z,2.45
2023-01-19T13:35:15.456Z,2.17
2023-01-19T13:38:18.544Z,2.83
2023-01-19T13:41:21.562Z,2.13
2023-01-19T13:44:24.582Z,2.13
2023-01-19T13:47:27.503Z,1.98
2023-01-19T13:50:30.158Z,2.63
2023-01-19T13:53:32.661Z,2.10
2023-01-19T13:56:35.781Z,3.90
2023-01-19T13:59:38.846Z,1.85
2023-01-19T14:02:41.896Z,1.75
2023-01-19T14:05:44.149Z,1.73
2023-01-19T14:08:46.675Z,1.23
2023-01-19T14:11:50.134Z,1.77
2023-01-19T14:14:53.020Z,2.05
2023-01-19T14:17:56.041Z,2.38
2023-01-19T14:20:58.199Z,1.77
2023-01-19T14:24:00.641Z,1.80
2023-01-19T14:27:03.866Z,1.85
2023-01-19T14:30:06.707Z,2.97
2023-01-19T14:33:09.330Z,1.92
2023-01-19T14:36:12.331Z,1.48
2023-01-19T14:39:14.954Z,2.22
2023-01-19T14:42:17.733Z,1.90
2023-01-19T14:45:23.391Z,2.22
2023-01-19T14:48:25.634Z,1.25
2023-01-19T14:51:27.926Z,2.63
2023-01-19T14:54:30.644Z,1.27
2023-01-19T14:57:33.304Z,1.15
2023-01-19T15:00:36.413Z,2.00
2023-01-19T15:03:46.453Z,2.47
2023-01-19T15:06:48.919Z,2.60
2023-01-19T15:09:51.637Z,1.98
2023-01-19T15:12:53.986Z,2.60
2023-01-19T15:15:56.624Z,1.75
2023-01-19T15:18:59.607Z,1.63
2023-01-19T15:22:02.501Z,2.25
2023-01-19T15:25:05.086Z,1.80
2023-01-19T15:28:07.663Z,1.13
2023-01-19T15:31:10.626Z,1.40
2023-01-19T15:34:13.448Z,1.52
2023-01-19T15:37:16.303Z,1.67
2023-01-19T15:40:19.261Z,0.82
2023-01-19T15:43:21.915Z,1.48
2023-01-19T15:46:24.316Z,2.65
2023-01-19T15:49:27.991Z,0.82
2023-01-19T15:52:30.912Z,2.13
2023-01-19T15:55:33.930Z,2.08
2023-01-19T15:58:36.695Z,1.13
2023-01-19T16:01:39.611Z,1.30
2023-01-19T16:04:42.060Z,1.98
2023-01-19T16:07:45.122Z,2.22
2023-01-19T16:10:48.317Z,2.30
2023-01-19T16:13:50.943Z,2.47
2023-01-19T16:16:53.596Z,1.55
2023-01-19T16:19:55.504Z,2.13
2023-01-19T16:23:09.652Z,1.10
2023-01-19T16:26:17.767Z,1.95
2023-01-19T16:29:21.143Z,1.55
2023-01-19T16:32:24.051Z,1.27
2023-01-19T16:35:26.700Z,1.95
2023-01-19T16:38:29.401Z,1.65
2023-01-19T16:41:32.013Z,1.42
2023-01-19T16:44:34.695Z,1.67
2023-01-19T16:47:37.168Z,2.25
2023-01-19T16:50:39.436Z,1.85
2023-01-19T16:53:42.016Z,1.75
2023-01-19T16:56:44.768Z,1.30
2023-01-19T16:59:48.059Z,1.52
2023-01-19T17:02:50.838Z,1.33
2023-01-19T17:05:53.143Z,1.30
2023-01-19T17:08:55.351Z,2.67
2023-01-19T17:11:58.005Z,1.50
2023-01-19T17:15:01.098Z,1.02
2023-01-19T17:18:04.917Z,1.50
2023-01-19T17:21:07.819Z,2.55
2023-01-19T17:24:10.527Z,2.30
2023-01-19T17:27:13.584Z,2.20
2023-01-19T17:30:16.063Z,1.83
2023-01-19T17:33:19.062Z,1.60
2023-01-19T17:36:21.912Z,1.60
2023-01-19T17:39:24.808Z,2.00
2023-01-19T17:42:27.510Z,1.55
2023-01-19T17:45:30.614Z,1.42
2023-01-19T17:48:34.037Z,1.83
2023-01-19T17:51:36.653Z,2.22
2023-01-19T17:54:39.389Z,1.85
2023-01-19T17:57:41.585Z,1.88
2023-01-19T18:00:44.314Z,3.30
2023-01-19T18:03:46.461Z,2.55
2023-01-19T18:06:49.495Z,2.30
2023-01-19T18:09:52.894Z,2.83
2023-01-19T18:12:55.149Z,2.03
2023-01-19T18:15:57.327Z,2.10
2023-01-19T18:18:59.521Z,1.83
2023-01-19T18:22:02.545Z,2.63
2023-01-19T18:25:05.849Z,1.98
2023-01-19T18:28:08.764Z,3.25
2023-01-19T18:31:11.107Z,3.30
2023-01-19T18:34:13.810Z,4.03
2023-01-19T18:37:16.421Z,2.70
2023-01-19T18:40:19.036Z,3.92
2023-01-19T18:43:21.479Z,3.70
2023-01-19T18:46:24.802Z,4.30
2023-01-19T18:49:27.823Z,4.90
2023-01-19T18:52:30.690Z,4.82
2023-01-19T18:55:33.572Z,3.90
2023-01-19T18:58:36.494Z,4.28
2023-01-19T19:01:38.927Z,4.25
2023-01-19T19:04:42.008Z,3.72
2023-01-19T19:07:45.057Z,3.78
2023-01-19T19:10:47.960Z,4.93
2023-01-19T19:13:51.369Z,4.32
2023-01-19T19:16:53.968Z,3.45
2023-01-19T19:19:56.904Z,4.65
2023-01-19T19:22:59.798Z,4.47
2023-01-19T19:26:02.534Z,4.85
2023-01-19T19:29:05.413Z,5.45
2023-01-19T19:32:08.377Z,5.45
2023-01-19T19:35:11.303Z,5.55
2023-01-19T19:38:14.996Z,5.43
2023-01-19T19:41:17.930Z,4.75
2023-01-19T19:44:20.564Z,6.32
2023-01-19T19:47:23.568Z,5.63
2023-01-19T19:50:26.912Z,6.35
2023-01-19T19:53:30.484Z,5.38
2023-01-19T19:56:33.472Z,7.30
2023-01-19T19:59:36.351Z,6.45
2023-01-19T20:02:38.299Z,7.07
2023-01-19T20:05:41.349Z,6.15
2023-01-19T20:08:44.153Z,5.95
2023-01-19T20:11:47.097Z,5.78
2023-01-19T20:14:49.662Z,5.05
2023-01-19T20:17:52.227Z,5.43
2023-01-19T20:20:54.771Z,6.05
2023-01-19T20:23:57.106Z,6.00
2023-01-19T20:27:00.335Z,6.28
2023-01-19T20:30:03.756Z,7.18
2023-01-19T20:33:07.169Z,6.47
2023-01-19T20:36:09.976Z,7.38
2023-01-19T20:39:13.217Z,6.63
2023-01-19T20:42:16.065Z,8.18
2023-01-19T20:45:19.066Z,7.15
2023-01-19T20:48:22.071Z,7.07
2023-01-19T20:51:25.504Z,8.32
2023-01-19T20:54:28.218Z,7.32
2023-01-19T20:57:31.711Z,6.28
2023-01-19T21:00:35.145Z,7.22
2023-01-19T21:03:37.878Z,5.18
2023-01-19T21:06:40.949Z,5.75
2023-01-19T21:09:43.855Z,6.13
2023-01-19T21:12:46.779Z,6.38
2023-01-19T21:15:49.979Z,6.80
2023-01-19T21:18:52.635Z,5.20
2023-01-19T21:21:55.143Z,5.25
2023-01-19T21:24:57.675Z,5.65
2023-01-19T21:28:00.168Z,6.28
2023-01-19T21:31:02.793Z,6.13
2023-01-19T21:34:05.451Z,6.22
2023-01-19T21:37:08.981Z,5.95
2023-01-19T21:40:11.801Z,5.97
2023-01-19T21:43:15.546Z,5.28
2023-01-19T21:46:17.853Z,6.53
2023-01-19T21:49:20.186Z,5.60
2023-01-19T21:52:22.514Z,4.82
2023-01-19T21:55:25.636Z,5.38
2023-01-19T21:58:28.311Z,5.63
2023-01-19T22:01:31.012Z,5.47
2023-01-19T22:04:33.827Z,5.22
2023-01-19T22:07:36.480Z,5.60
2023-01-19T22:10:39.103Z,5.53
2023-01-19T22:13:41.709Z,4.55
2023-01-19T22:16:44.347Z,4.75
2023-01-19T22:19:47.017Z,4.75
2023-01-19T22:22:49.653Z,5.15
2023-01-19T22:25:52.619Z,4.38
2023-01-19T22:28:55.607Z,5.05
2023-01-19T22:31:58.739Z,4.43
2023-01-19T22:35:01.528Z,5.80
2023-01-19T22:38:04.654Z,4.65
2023-01-19T22:41:08.547Z,4.18
2023-01-19T22:44:11.475Z,4.25
2023-01-19T22:47:14.087Z,4.00
2023-01-19T22:50:16.681Z,4.45
2023-01-19T22:53:19.519Z,4.65
2023-01-19T22:56:22.390Z,3.75
2023-01-19T22:59:25.531Z,4.13
2023-01-19T23:02:29.034Z,4.18
2023-01-19T23:05:32.019Z,2.95
2023-01-19T23:08:34.906Z,4.20
2023-01-19T23:11:37.350Z,3.63
2023-01-19T23:14:39.579Z,3.10
2023-01-19T23:17:42.520Z,3.58
2023-01-19T23:20:45.814Z,3.00
2023-01-19T23:23:48.687Z,3.40
2023-01-19T23:26:51.307Z,3.05
2023-01-19T23:29:54.364Z,2.92
2023-01-19T23:32:57.756Z,2.88
2023-01-19T23:36:00.920Z,2.92
2023-01-19T23:39:04.733Z,2.67
2023-01-19T23:42:07.025Z,3.28
2023-01-19T23:45:09.702Z,3.30
2023-01-19T23:48:13.364Z,2.95
2023-01-19T23:51:17.174Z,3.22
2023-01-19T23:54:20.529Z,2.90
2023-01-19T23:57:23.390Z,3.83
